createdAt,value
2022-08-19T00:01:59.445Z,16.23
2022-08-19T00:04:31.773Z,16.60
2022-08-19T00:07:01.142Z,16.33
2022-08-19T00:09:30.392Z,15.10
2022-08-19T00:11:59.434Z,15.23
2022-08-19T00:14:33.222Z,15.93
2022-08-19T00:17:03.493Z,16.83
2022-08-19T00:19:32.335Z,15.43
2022-08-19T00:22:01.204Z,15.77
2022-08-19T00:24:29.709Z,16.07
2022-08-19T00:27:04.912Z,16.70
2022-08-19T00:29:52.625Z,15.47
2022-08-19T00:32:23.847Z,17.37
2022-08-19T00:34:54.067Z,16.47
2022-08-19T00:37:23.976Z,16.77
2022-08-19T00:39:53.193Z,17.53
2022-08-19T00:42:23.144Z,17.07
2022-08-19T00:44:52.443Z,19.13
2022-08-19T00:47:22.578Z,19.70
2022-08-19T00:49:55.888Z,19.90
2022-08-19T00:52:28.129Z,18.93
2022-08-19T00:54:57.903Z,19.87
2022-08-19T00:57:30.189Z,20.43
2022-08-19T01:00:03.069Z,19.50
2022-08-19T01:02:34.405Z,21.73
2022-08-19T01:05:05.986Z,19.90
2022-08-19T01:07:35.844Z,21.17
2022-08-19T01:10:08.898Z,20.97
2022-08-19T01:12:37.509Z,20.67
2022-08-19T01:15:06.521Z,20.67
2022-08-19T01:17:37.493Z,21.73
2022-08-19T01:20:08.605Z,20.50
2022-08-19T01:22:45.774Z,21.80
2022-08-19T01:25:16.804Z,19.90
2022-08-19T01:27:49.194Z,20.87
2022-08-19T01:30:20.035Z,21.67
2022-08-19T01:32:48.786Z,20.40
2022-08-19T01:35:19.602Z,20.57
2022-08-19T01:37:52.904Z,20.80
2022-08-19T01:40:24.817Z,19.83
2022-08-19T01:42:54.853Z,20.87
2022-08-19T01:45:25.989Z,20.17
2022-08-19T01:48:01.902Z,20.27
2022-08-19T01:50:32.666Z,19.83
2022-08-19T01:53:06.597Z,19.90
2022-08-19T01:55:41.156Z,20.70
2022-08-19T01:58:13.571Z,22.23
2022-08-19T02:00:42.393Z,20.57
2022-08-19T02:03:12.382Z,21.93
2022-08-19T02:05:41.206Z,20.57
2022-08-19T02:08:11.892Z,20.63
2022-08-19T02:10:42.670Z,20.90
2022-08-19T02:13:11.802Z,20.70
2022-08-19T02:15:40.746Z,21.60
2022-08-19T02:18:09.894Z,20.27
2022-08-19T02:20:39.681Z,21.03
2022-08-19T02:23:13.617Z,20.00
2022-08-19T02:25:49.065Z,20.73
2022-08-19T02:28:20.615Z,20.73
2022-08-19T02:30:50.003Z,22.53
2022-08-19T02:33:18.945Z,19.70
2022-08-19T02:35:48.331Z,20.93
2022-08-19T02:38:33.636Z,19.27
2022-08-19T02:41:06.892Z,19.47
2022-08-19T02:43:36.972Z,21.03
2022-08-19T02:46:14.474Z,21.87
2022-08-19T02:48:43.069Z,21.10
2022-08-19T02:51:17.375Z,21.20
2022-08-19T02:53:45.923Z,21.97
2022-08-19T02:56:16.048Z,20.50
2022-08-19T02:58:45.339Z,21.57
2022-08-19T03:01:22.894Z,22.33
2022-08-19T03:03:52.084Z,20.93
2022-08-19T03:06:20.465Z,22.10
2022-08-19T03:08:50.420Z,21.50
2022-08-19T03:11:22.899Z,20.63
2022-08-19T03:13:51.889Z,20.23
2022-08-19T03:16:20.945Z,20.47
2022-08-19T03:18:49.594Z,20.37
2022-08-19T03:21:18.697Z,20.57
2022-08-19T03:23:47.162Z,20.50
2022-08-19T03:26:17.073Z,20.17
2022-08-19T03:28:51.298Z,20.33
2022-08-19T03:31:45.626Z,20.87
2022-08-19T03:34:15.168Z,19.77
2022-08-19T03:36:43.629Z,20.67
2022-08-19T03:39:12.478Z,21.93
2022-08-19T03:41:44.918Z,21.97
2022-08-19T03:44:18.509Z,20.63
2022-08-19T03:46:49.035Z,21.20
2022-08-19T03:49:18.949Z,21.90
2022-08-19T03:51:51.272Z,21.40
2022-08-19T03:54:21.707Z,20.87
2022-08-19T03:56:51.787Z,19.73
2022-08-19T03:59:27.032Z,19.73
2022-08-19T04:01:56.119Z,19.70
2022-08-19T04:04:25.479Z,21.13
2022-08-19T04:06:58.199Z,19.47
2022-08-19T04:09:26.859Z,19.40
2022-08-19T04:11:57.049Z,20.67
2022-08-19T04:14:29.543Z,20.13
2022-08-19T04:16:58.683Z,21.00
2022-08-19T04:19:28.097Z,21.07
2022-08-19T04:21:57.615Z,19.93
2022-08-19T04:24:25.868Z,20.53
2022-08-19T04:26:54.146Z,20.60
2022-08-19T04:29:26.244Z,20.53
2022-08-19T04:31:57.641Z,22.07
2022-08-19T04:34:28.066Z,21.40
2022-08-19T04:36:58.180Z,20.93
2022-08-19T04:39:49.634Z,21.17
2022-08-19T04:42:37.237Z,19.97
2022-08-19T04:45:09.406Z,21.33
2022-08-19T04:47:48.306Z,22.20
2022-08-19T04:50:28.262Z,21.37
2022-08-19T04:52:57.426Z,22.77
2022-08-19T04:55:26.586Z,22.23
2022-08-19T04:57:55.095Z,22.30
2022-08-19T05:00:23.475Z,22.00
2022-08-19T05:02:53.318Z,19.97
2022-08-19T05:05:22.685Z,19.83
2022-08-19T05:07:50.862Z,20.43
2022-08-19T05:10:19.228Z,19.73
2022-08-19T05:12:47.973Z,20.83
2022-08-19T05:15:16.309Z,22.27
2022-08-19T05:18:04.865Z,23.10
2022-08-19T05:20:52.105Z,22.00
2022-08-19T05:23:22.945Z,22.00
2022-08-19T05:25:52.704Z,19.67
2022-08-19T05:28:21.382Z,19.87
2022-08-19T05:30:51.838Z,20.13
2022-08-19T05:33:24.343Z,21.50
2022-08-19T05:35:54.325Z,21.30
2022-08-19T05:38:22.597Z,19.60
2022-08-19T05:40:51.022Z,19.37
2022-08-19T05:43:19.702Z,21.43
2022-08-19T05:45:47.967Z,21.47
2022-08-19T05:48:21.867Z,20.23
2022-08-19T05:50:51.330Z,21.47
2022-08-19T05:53:21.307Z,23.30
2022-08-19T05:55:49.639Z,21.17
2022-08-19T05:58:18.405Z,19.17
2022-08-19T06:00:51.341Z,20.53
2022-08-19T06:03:19.748Z,19.63
2022-08-19T06:05:51.565Z,18.93
2022-08-19T06:08:33.921Z,18.73
2022-08-19T06:11:17.017Z,18.40
2022-08-19T06:13:50.518Z,17.93
2022-08-19T06:16:21.818Z,19.07
2022-08-19T06:18:52.658Z,19.73
2022-08-19T06:21:21.638Z,18.40
2022-08-19T06:23:52.693Z,17.83
2022-08-19T06:26:22.083Z,16.30
2022-08-19T06:28:51.396Z,18.37
2022-08-19T06:31:23.277Z,15.73
2022-08-19T06:33:51.794Z,17.23
2022-08-19T06:36:25.267Z,16.60
2022-08-19T06:38:56.276Z,16.10
2022-08-19T06:41:24.592Z,15.37
2022-08-19T06:43:54.152Z,16.07
2022-08-19T06:46:25.551Z,16.43
2022-08-19T06:48:55.447Z,16.33
2022-08-19T06:51:25.250Z,16.30
2022-08-19T06:53:59.058Z,15.70
2022-08-19T06:56:34.749Z,14.70
2022-08-19T06:59:03.911Z,14.50
2022-08-19T07:01:32.285Z,14.17
2022-08-19T07:04:02.594Z,13.75
2022-08-19T07:06:44.237Z,13.82
2022-08-19T07:09:18.759Z,14.40
2022-08-19T07:11:48.463Z,13.20
2022-08-19T07:14:20.058Z,11.63
2022-08-19T07:16:50.144Z,10.60
2022-08-19T07:19:20.421Z,11.20
2022-08-19T07:21:50.486Z,11.73
2022-08-19T07:24:20.639Z,10.73
2022-08-19T07:26:51.784Z,10.85
2022-08-19T07:29:25.661Z,10.35
2022-08-19T07:32:00.030Z,10.05
2022-08-19T07:34:29.798Z,9.75
2022-08-19T07:36:58.813Z,10.00
2022-08-19T07:39:32.172Z,9.80
2022-08-19T07:42:03.103Z,9.27
2022-08-19T07:44:31.707Z,8.57
2022-08-19T07:47:01.350Z,8.15
2022-08-19T07:49:30.570Z,8.77
2022-08-19T07:52:02.591Z,8.50
2022-08-19T07:54:36.625Z,7.65
2022-08-19T07:57:05.487Z,8.05
2022-08-19T07:59:34.750Z,7.30
2022-08-19T08:02:03.518Z,7.65
2022-08-19T08:04:50.994Z,7.68
2022-08-19T08:07:37.642Z,7.60
2022-08-19T08:10:14.809Z,6.85
2022-08-19T08:13:08.530Z,7.82
2022-08-19T08:15:42.654Z,7.80
2022-08-19T08:18:12.014Z,6.72
2022-08-19T08:20:41.186Z,6.47
2022-08-19T08:23:26.799Z,7.65
2022-08-19T08:25:58.851Z,6.97
2022-08-19T08:28:30.067Z,6.13
2022-08-19T08:30:59.770Z,6.85
2022-08-19T08:33:34.597Z,6.80
2022-08-19T08:36:04.248Z,6.70
2022-08-19T08:38:38.992Z,5.95
2022-08-19T08:41:21.267Z,6.10
2022-08-19T08:43:53.250Z,5.75
2022-08-19T08:46:30.523Z,5.82
2022-08-19T08:49:04.710Z,5.97
2022-08-19T08:51:39.295Z,5.22
2022-08-19T08:54:15.026Z,5.70
2022-08-19T08:56:47.386Z,5.10
2022-08-19T08:59:22.843Z,5.15
2022-08-19T09:01:51.723Z,4.47
2022-08-19T09:04:20.681Z,5.35
2022-08-19T09:06:55.642Z,4.85
2022-08-19T09:09:33.499Z,5.00
2022-08-19T09:12:13.474Z,5.25
2022-08-19T09:14:51.871Z,5.13
2022-08-19T09:17:32.226Z,4.88
2022-08-19T09:20:05.849Z,5.20
2022-08-19T09:22:38.350Z,4.80
2022-08-19T09:25:08.458Z,5.10
2022-08-19T09:27:43.174Z,4.50
2022-08-19T09:30:16.690Z,5.03
2022-08-19T09:32:46.586Z,4.60
2022-08-19T09:35:16.098Z,4.68
2022-08-19T09:37:45.103Z,4.65
2022-08-19T09:40:15.485Z,5.07
2022-08-19T09:42:50.134Z,4.45
2022-08-19T09:45:22.747Z,4.50
2022-08-19T09:47:54.174Z,4.30
2022-08-19T09:50:24.664Z,4.18
2022-08-19T09:52:57.202Z,4.43
2022-08-19T09:55:32.079Z,4.43
2022-08-19T09:58:05.206Z,4.40
2022-08-19T10:00:33.767Z,4.22
2022-08-19T10:03:02.489Z,4.78
2022-08-19T10:05:49.617Z,3.97
2022-08-19T10:08:20.719Z,4.22
2022-08-19T10:10:50.019Z,4.00
2022-08-19T10:13:23.115Z,4.15
2022-08-19T10:15:52.186Z,4.05
2022-08-19T10:18:22.191Z,4.43
2022-08-19T10:20:53.665Z,4.40
2022-08-19T10:23:22.781Z,4.50
2022-08-19T10:25:54.943Z,3.90
2022-08-19T10:28:25.061Z,4.18
2022-08-19T10:30:53.386Z,4.05
2022-08-19T10:33:38.693Z,4.00
2022-08-19T10:36:12.331Z,4.28
2022-08-19T10:38:50.340Z,3.90
2022-08-19T10:41:24.189Z,3.88
2022-08-19T10:43:55.752Z,3.92
2022-08-19T10:46:25.774Z,3.70
2022-08-19T10:48:54.895Z,3.63
2022-08-19T10:51:45.806Z,3.90
2022-08-19T10:54:16.795Z,4.13
2022-08-19T10:56:53.616Z,3.70
2022-08-19T10:59:31.429Z,4.00
2022-08-19T11:02:03.931Z,4.05
2022-08-19T11:04:33.002Z,3.72
2022-08-19T11:07:01.358Z,4.53
2022-08-19T11:09:33.888Z,4.25
2022-08-19T11:12:04.898Z,4.22
2022-08-19T11:14:36.724Z,3.97
2022-08-19T11:17:06.859Z,4.05
2022-08-19T11:19:35.781Z,4.32
2022-08-19T11:22:04.874Z,4.45
2022-08-19T11:24:33.927Z,3.97
2022-08-19T11:27:08.375Z,4.00
2022-08-19T11:29:40.852Z,4.63
2022-08-19T11:32:12.131Z,4.00
2022-08-19T11:34:40.830Z,3.88
2022-08-19T11:37:09.993Z,3.63
2022-08-19T11:39:39.907Z,4.75
2022-08-19T11:42:29.221Z,4.30
2022-08-19T11:44:59.318Z,3.33
2022-08-19T11:47:27.519Z,3.95
2022-08-19T11:49:55.789Z,4.00
2022-08-19T11:52:24.166Z,4.28
2022-08-19T11:54:52.443Z,4.28
2022-08-19T11:57:20.918Z,3.97
2022-08-19T11:59:54.007Z,3.97
2022-08-19T12:02:24.366Z,4.03
2022-08-19T12:04:52.687Z,3.58
2022-08-19T12:07:20.962Z,4.70
2022-08-19T12:09:49.522Z,3.80
2022-08-19T12:12:17.767Z,4.22
2022-08-19T12:14:47.821Z,4.35
2022-08-19T12:17:18.165Z,3.85
2022-08-19T12:19:47.730Z,4.15
2022-08-19T12:22:16.013Z,3.90
2022-08-19T12:24:44.648Z,4.30
2022-08-19T12:27:13.107Z,4.20
2022-08-19T12:29:49.141Z,4.00
2022-08-19T12:32:17.906Z,4.55
2022-08-19T12:34:48.307Z,4.20
2022-08-19T12:37:17.960Z,4.38
2022-08-19T12:39:47.262Z,4.80
2022-08-19T12:42:16.781Z,4.13
2022-08-19T12:44:46.318Z,4.50
2022-08-19T12:47:15.798Z,4.53
2022-08-19T12:49:53.760Z,4.38
2022-08-19T12:52:28.391Z,3.90
2022-08-19T12:54:58.640Z,4.38
2022-08-19T12:57:32.038Z,4.00
2022-08-19T13:00:04.875Z,3.95
2022-08-19T13:02:39.074Z,3.85
2022-08-19T13:05:10.295Z,4.07
2022-08-19T13:07:41.398Z,4.75
2022-08-19T13:10:12.156Z,4.15
2022-08-19T13:12:42.047Z,4.65
2022-08-19T13:15:11.986Z,4.22
2022-08-19T13:17:41.309Z,4.57
2022-08-19T13:20:11.389Z,4.03
2022-08-19T13:22:41.178Z,4.68
2022-08-19T13:25:11.114Z,4.50
2022-08-19T13:27:39.979Z,4.55
2022-08-19T13:30:29.627Z,4.53
2022-08-19T13:33:15.566Z,4.82
2022-08-19T13:35:48.497Z,4.55
2022-08-19T13:38:19.802Z,4.53
2022-08-19T13:40:50.790Z,5.30
2022-08-19T13:43:23.458Z,4.50
2022-08-19T13:45:54.167Z,4.85
2022-08-19T13:48:22.382Z,5.00
2022-08-19T13:50:50.590Z,4.88
2022-08-19T13:53:21.348Z,4.75
2022-08-19T13:55:51.521Z,4.88
2022-08-19T13:58:20.256Z,4.82
2022-08-19T14:00:50.918Z,5.45
2022-08-19T14:03:19.291Z,5.57
2022-08-19T14:05:48.306Z,5.35
2022-08-19T14:08:17.084Z,5.38
2022-08-19T14:10:47.576Z,4.68
2022-08-19T14:13:19.482Z,4.63
2022-08-19T14:15:48.345Z,5.28
2022-08-19T14:18:17.732Z,4.60
2022-08-19T14:20:47.052Z,4.95
2022-08-19T14:23:15.757Z,4.78
2022-08-19T14:25:44.446Z,4.47
2022-08-19T14:28:14.412Z,4.57
2022-08-19T14:30:42.997Z,5.00
2022-08-19T14:33:11.194Z,5.68
2022-08-19T14:35:40.253Z,5.03
2022-08-19T14:38:17.034Z,5.47
2022-08-19T14:40:46.051Z,5.45
2022-08-19T14:43:15.740Z,5.90
2022-08-19T14:45:46.646Z,5.43
2022-08-19T14:48:19.185Z,5.60
2022-08-19T14:50:48.330Z,5.30
2022-08-19T14:53:18.833Z,4.65
2022-08-19T14:55:48.587Z,4.65
2022-08-19T14:58:29.823Z,4.70
2022-08-19T15:01:00.319Z,4.88
2022-08-19T15:03:29.753Z,4.60
2022-08-19T15:05:58.922Z,4.65
2022-08-19T15:08:27.845Z,4.82
2022-08-19T15:10:56.839Z,5.05
2022-08-19T15:13:28.758Z,4.80
2022-08-19T15:15:58.214Z,4.93
2022-08-19T15:18:26.855Z,4.60
2022-08-19T15:20:55.973Z,4.65
2022-08-19T15:23:24.556Z,4.55
2022-08-19T15:25:56.595Z,4.82
2022-08-19T15:28:28.170Z,4.45
2022-08-19T15:30:56.390Z,4.88
2022-08-19T15:33:24.598Z,4.75
2022-08-19T15:35:54.019Z,5.35
2022-08-19T15:38:24.502Z,6.18
2022-08-19T15:40:53.499Z,4.80
2022-08-19T15:43:23.444Z,5.40
2022-08-19T15:45:53.094Z,4.50
2022-08-19T15:48:21.678Z,5.18
2022-08-19T15:50:50.576Z,5.60
2022-08-19T15:53:18.810Z,5.65
2022-08-19T15:55:48.610Z,4.88
2022-08-19T15:58:34.842Z,5.15
2022-08-19T16:01:24.127Z,5.43
2022-08-19T16:04:14.817Z,5.22
2022-08-19T16:06:46.505Z,5.63
2022-08-19T16:09:15.924Z,5.78
2022-08-19T16:11:46.401Z,5.70
2022-08-19T16:14:15.157Z,5.47
2022-08-19T16:16:47.362Z,5.80
2022-08-19T16:19:17.437Z,5.70
2022-08-19T16:21:48.076Z,5.75
2022-08-19T16:24:19.073Z,5.15
2022-08-19T16:26:48.256Z,5.28
2022-08-19T16:29:33.440Z,5.60
2022-08-19T16:32:06.656Z,5.63
2022-08-19T16:34:35.002Z,6.13
2022-08-19T16:37:03.314Z,6.30
2022-08-19T16:39:31.655Z,6.05
2022-08-19T16:42:01.082Z,6.45
2022-08-19T16:44:30.088Z,6.82
2022-08-19T16:46:59.663Z,5.82
2022-08-19T16:49:54.165Z,6.57
2022-08-19T16:52:20.407Z,6.22
2022-08-19T16:54:49.859Z,7.35
2022-08-19T16:57:18.503Z,6.32
2022-08-19T16:59:48.955Z,6.47
2022-08-19T17:02:18.787Z,6.15
2022-08-19T17:04:57.666Z,6.85
2022-08-19T17:07:27.330Z,6.63
2022-08-19T17:09:56.062Z,6.30
2022-08-19T17:12:29.055Z,6.80
2022-08-19T17:15:00.832Z,6.25
2022-08-19T17:17:29.793Z,6.65
2022-08-19T17:20:00.456Z,6.82
2022-08-19T17:22:30.051Z,7.45
2022-08-19T17:24:58.775Z,7.32
2022-08-19T17:27:31.325Z,7.13
2022-08-19T17:30:02.606Z,7.25
2022-08-19T17:32:33.382Z,7.32
2022-08-19T17:35:05.239Z,7.95
2022-08-19T17:37:35.008Z,7.68
2022-08-19T17:40:03.484Z,8.40
2022-08-19T17:42:32.167Z,8.50
2022-08-19T17:45:00.792Z,7.55
2022-08-19T17:47:29.779Z,7.88
2022-08-19T17:49:58.222Z,7.38
2022-08-19T17:52:28.068Z,8.63
2022-08-19T17:54:56.522Z,7.90
2022-08-19T17:57:25.301Z,8.02
2022-08-19T17:59:54.200Z,8.57
2022-08-19T18:02:22.518Z,9.23
2022-08-19T18:04:51.189Z,8.25
2022-08-19T18:07:21.708Z,8.70
2022-08-19T18:09:53.138Z,8.90
2022-08-19T18:12:24.713Z,8.60
2022-08-19T18:14:53.885Z,9.15
2022-08-19T18:17:24.450Z,9.43
2022-08-19T18:19:52.890Z,9.25
2022-08-19T18:22:27.587Z,9.38
2022-08-19T18:24:58.309Z,8.75
2022-08-19T18:27:27.792Z,8.57
2022-08-19T18:29:59.957Z,9.48
2022-08-19T18:32:31.672Z,8.52
2022-08-19T18:35:02.507Z,8.57
2022-08-19T18:37:31.129Z,9.73
2022-08-19T18:40:18.134Z,8.65
2022-08-19T18:43:05.182Z,9.45
2022-08-19T18:45:51.587Z,9.20
2022-08-19T18:48:37.618Z,9.90
2022-08-19T18:51:06.724Z,9.30
2022-08-19T18:53:38.081Z,10.05
2022-08-19T18:56:09.447Z,10.27
2022-08-19T18:58:39.271Z,9.10
2022-08-19T19:01:11.918Z,9.52
2022-08-19T19:03:43.680Z,9.60
2022-08-19T19:06:15.338Z,8.95
2022-08-19T19:08:44.058Z,9.50
2022-08-19T19:11:13.962Z,9.88
2022-08-19T19:13:46.741Z,9.60
2022-08-19T19:16:15.708Z,10.05
2022-08-19T19:18:44.654Z,9.20
2022-08-19T19:21:13.470Z,9.68
2022-08-19T19:23:42.477Z,9.70
2022-08-19T19:26:12.208Z,9.55
2022-08-19T19:28:45.660Z,10.20
2022-08-19T19:31:16.114Z,9.63
2022-08-19T19:33:45.521Z,9.90
2022-08-19T19:36:14.614Z,9.75
2022-08-19T19:38:48.714Z,10.90
2022-08-19T19:41:19.950Z,10.18
2022-08-19T19:44:04.605Z,10.27
2022-08-19T19:46:39.889Z,10.32
2022-08-19T19:49:08.243Z,10.50
2022-08-19T19:51:39.546Z,10.30
2022-08-19T19:54:13.654Z,10.70
2022-08-19T19:56:46.136Z,10.82
2022-08-19T19:59:16.255Z,10.88
2022-08-19T20:01:46.988Z,11.02
2022-08-19T20:04:16.540Z,11.25
2022-08-19T20:06:46.055Z,10.85
2022-08-19T20:09:19.480Z,11.18
2022-08-19T20:11:50.360Z,11.00
2022-08-19T20:14:26.269Z,11.07
2022-08-19T20:16:55.698Z,10.38
2022-08-19T20:19:27.558Z,10.50
2022-08-19T20:21:57.586Z,11.40
2022-08-19T20:24:32.711Z,10.63
2022-08-19T20:27:01.581Z,11.13
2022-08-19T20:29:39.196Z,10.43
2022-08-19T20:32:09.009Z,12.43
2022-08-19T20:34:40.705Z,11.98
2022-08-19T20:37:10.031Z,12.10
2022-08-19T20:39:38.542Z,11.73
2022-08-19T20:42:07.142Z,12.68
2022-08-19T20:44:37.204Z,12.00
2022-08-19T20:47:06.117Z,11.90
2022-08-19T20:49:35.250Z,12.18
2022-08-19T20:52:05.158Z,11.73
2022-08-19T20:54:34.371Z,11.82
2022-08-19T20:57:03.805Z,11.75
2022-08-19T20:59:32.098Z,11.88
2022-08-19T21:02:01.830Z,11.25
2022-08-19T21:04:30.260Z,13.25
2022-08-19T21:06:58.803Z,11.95
2022-08-19T21:09:27.106Z,11.20
2022-08-19T21:11:55.462Z,11.48
2022-08-19T21:14:23.974Z,12.00
2022-08-19T21:16:52.519Z,12.27
2022-08-19T21:19:24.122Z,12.73
2022-08-19T21:21:53.479Z,11.32
2022-08-19T21:24:22.084Z,13.55
2022-08-19T21:26:57.390Z,12.88
2022-08-19T21:29:26.091Z,12.55
2022-08-19T21:31:54.298Z,13.55
2022-08-19T21:34:24.078Z,13.13
2022-08-19T21:36:52.684Z,12.82
2022-08-19T21:39:20.920Z,13.27
2022-08-19T21:41:49.502Z,12.73
2022-08-19T21:44:18.026Z,12.93
2022-08-19T21:46:50.278Z,12.75
2022-08-19T21:49:19.864Z,12.63
2022-08-19T21:51:49.895Z,12.55
2022-08-19T21:54:18.150Z,13.25
2022-08-19T21:56:47.507Z,12.25
2022-08-19T21:59:16.930Z,12.57
2022-08-19T22:01:49.686Z,12.23
2022-08-19T22:04:20.792Z,13.13
2022-08-19T22:06:50.833Z,12.93
2022-08-19T22:09:19.068Z,12.68
2022-08-19T22:11:47.686Z,12.88
2022-08-19T22:14:16.287Z,12.48
2022-08-19T22:16:47.381Z,13.50
2022-08-19T22:19:15.722Z,12.25
2022-08-19T22:21:44.386Z,13.68
2022-08-19T22:24:14.005Z,12.45
2022-08-19T22:26:42.416Z,13.18
2022-08-19T22:29:10.944Z,13.25
2022-08-19T22:31:44.221Z,12.52
2022-08-19T22:34:12.729Z,12.18
2022-08-19T22:36:40.953Z,10.98
2022-08-19T22:39:10.244Z,12.48
2022-08-19T22:41:40.882Z,12.60
2022-08-19T22:44:11.583Z,12.35
2022-08-19T22:46:40.213Z,12.20
2022-08-19T22:49:08.533Z,14.25
2022-08-19T22:51:54.879Z,12.88
2022-08-19T22:54:23.398Z,12.30
2022-08-19T22:56:53.463Z,12.60
2022-08-19T22:59:22.889Z,13.13
2022-08-19T23:01:51.619Z,12.43
2022-08-19T23:04:19.953Z,11.63
2022-08-19T23:06:48.269Z,12.73
2022-08-19T23:09:17.181Z,12.35
2022-08-19T23:11:46.335Z,12.23
2022-08-19T23:14:17.760Z,11.90
2022-08-19T23:16:51.010Z,13.18
2022-08-19T23:19:20.781Z,13.02
2022-08-19T23:21:49.366Z,12.38
2022-08-19T23:24:17.610Z,12.98
2022-08-19T23:26:59.852Z,11.57
2022-08-19T23:29:48.506Z,12.73
2022-08-19T23:32:17.737Z,11.90
2022-08-19T23:34:46.569Z,12.15
2022-08-19T23:37:15.062Z,11.88
2022-08-19T23:39:43.784Z,11.55
2022-08-19T23:42:14.609Z,11.60
2022-08-19T23:44:51.512Z,11.60
2022-08-19T23:47:23.929Z,11.82
2022-08-19T23:49:53.101Z,12.60
2022-08-19T23:52:21.502Z,12.15
2022-08-19T23:54:50.027Z,12.70
2022-08-19T23:57:18.407Z,12.05
2022-08-19T23:59:48.001Z,12.57
